CCA1617 ZBAA-ZYTL
Flight info
| Callsign | CCA1617 |
|---|---|
| Flight time | 0h 56m |
| Altitude | 22600 |
| Route | MUGLO5Y MUGLO W34 ANRAT W575 INTIV INT17A |
| Aircraft | B738/M-SDE2E3FGHIRWXY/LB1 |
Departure
| Time | 2026-05-08 02:18 |
|---|---|
| Airport | Beijing Capital International Airport (ZBAA) |
Arrival
| Time | 2026-05-08 03:14 |
|---|---|
| Airport | Dalian Zhoushuizi International Airport (ZYTL) |
| Time | Latitude | Longitude | Altitude | Speed | Heading |
|---|---|---|---|---|---|
| 2026-05-08 02:05 | 40.06044 | 116.60664 | 125 ft | 0 kts | 83° |
| 2026-05-08 02:10 | 40.06043 | 116.60643 | 119 ft | 4 kts | 83° |
| 2026-05-08 02:10 | 40.06039 | 116.60609 | 118 ft | 3 kts | 83° |
| 2026-05-08 02:10 | 40.06038 | 116.60580 | 118 ft | 4 kts | 107° |
| 2026-05-08 02:11 | 40.06052 | 116.60555 | 119 ft | 4 kts | 159° |
| 2026-05-08 02:11 | 40.06077 | 116.60548 | 118 ft | 3 kts | 173° |
| 2026-05-08 02:11 | 40.06079 | 116.60547 | 119 ft | 1 kts | 173° |
| 2026-05-08 02:14 | 40.06056 | 116.60551 | 119 ft | 7 kts | 173° |
| 2026-05-08 02:14 | 40.05997 | 116.60560 | 121 ft | 9 kts | 173° |
| 2026-05-08 02:14 | 40.05935 | 116.60570 | 119 ft | 9 kts | 174° |
| 2026-05-08 02:14 | 40.05859 | 116.60582 | 123 ft | 13 kts | 174° |
| 2026-05-08 02:15 | 40.05768 | 116.60576 | 120 ft | 14 kts | 227° |
| 2026-05-08 02:15 | 40.05750 | 116.60461 | 123 ft | 13 kts | 263° |
| 2026-05-08 02:15 | 40.05739 | 116.60345 | 123 ft | 13 kts | 263° |
| 2026-05-08 02:15 | 40.05717 | 116.60239 | 122 ft | 12 kts | 219° |
| 2026-05-08 02:16 | 40.05634 | 116.60237 | 119 ft | 12 kts | 172° |
| 2026-05-08 02:16 | 40.05555 | 116.60227 | 122 ft | 12 kts | 223° |
| 2026-05-08 02:16 | 40.05540 | 116.60126 | 122 ft | 11 kts | 270° |
| 2026-05-08 02:16 | 40.05572 | 116.60035 | 123 ft | 11 kts | 311° |
| 2026-05-08 02:17 | 40.05641 | 116.60000 | 122 ft | 11 kts | 353° |
| 2026-05-08 02:17 | 40.05858 | 116.59967 | 122 ft | 64 kts | 353° |
| 2026-05-08 02:17 | 40.06534 | 116.59860 | 118 ft | 130 kts | 353° |
| 2026-05-08 02:17 | 40.07583 | 116.59696 | 168 ft | 177 kts | 353° |
| 2026-05-08 02:18 | 40.08868 | 116.59491 | 616 ft | 198 kts | 352° |
| 2026-05-08 02:18 | 40.10267 | 116.59270 | 1294 ft | 204 kts | 352° |
| 2026-05-08 02:18 | 40.11690 | 116.59041 | 1953 ft | 212 kts | 352° |
| 2026-05-08 02:18 | 40.13228 | 116.58800 | 2253 ft | 234 kts | 352° |
| 2026-05-08 02:19 | 40.14888 | 116.58623 | 2776 ft | 247 kts | 357° |
| 2026-05-08 02:19 | 40.16618 | 116.58331 | 3314 ft | 260 kts | 348° |
| 2026-05-08 02:19 | 40.18394 | 116.57932 | 4187 ft | 263 kts | 351° |
| 2026-05-08 02:19 | 40.20227 | 116.57637 | 5054 ft | 267 kts | 352° |
| 2026-05-08 02:20 | 40.22068 | 116.57503 | 5936 ft | 269 kts | 7° |
| 2026-05-08 02:20 | 40.23821 | 116.58386 | 6572 ft | 275 kts | 34° |
| 2026-05-08 02:20 | 40.25060 | 116.60299 | 6883 ft | 281 kts | 61° |
| 2026-05-08 02:20 | 40.25616 | 116.62779 | 6951 ft | 288 kts | 82° |
| 2026-05-08 02:21 | 40.25828 | 116.65397 | 7590 ft | 291 kts | 82° |
| 2026-05-08 02:21 | 40.26043 | 116.68044 | 8404 ft | 294 kts | 81° |
| 2026-05-08 02:21 | 40.26268 | 116.70714 | 9201 ft | 297 kts | 80° |
| 2026-05-08 02:21 | 40.26502 | 116.73430 | 9959 ft | 303 kts | 79° |
| 2026-05-08 02:22 | 40.26744 | 116.76201 | 10547 ft | 313 kts | 79° |
| 2026-05-08 02:22 | 40.27006 | 116.79142 | 10728 ft | 338 kts | 79° |
| 2026-05-08 02:22 | 40.27286 | 116.82305 | 10918 ft | 361 kts | 79° |
| 2026-05-08 02:22 | 40.27575 | 116.85614 | 11286 ft | 375 kts | 80° |
| 2026-05-08 02:23 | 40.27867 | 116.89028 | 11964 ft | 379 kts | 79° |
| 2026-05-08 02:23 | 40.28160 | 116.92450 | 12724 ft | 381 kts | 79° |
| 2026-05-08 02:23 | 40.28458 | 116.95926 | 13412 ft | 386 kts | 79° |
| 2026-05-08 02:23 | 40.28760 | 116.99459 | 14090 ft | 391 kts | 78° |
| 2026-05-08 02:24 | 40.29064 | 117.03008 | 14717 ft | 395 kts | 78° |
| 2026-05-08 02:24 | 40.29310 | 117.06599 | 15353 ft | 402 kts | 86° |
| 2026-05-08 02:24 | 40.28787 | 117.10243 | 15986 ft | 417 kts | 109° |
| 2026-05-08 02:24 | 40.27254 | 117.13489 | 16521 ft | 427 kts | 131° |
| 2026-05-08 02:25 | 40.24957 | 117.15847 | 17036 ft | 432 kts | 154° |
| 2026-05-08 02:25 | 40.22171 | 117.17083 | 17594 ft | 429 kts | 174° |
| 2026-05-08 02:25 | 40.19211 | 117.17639 | 18164 ft | 432 kts | 176° |
| 2026-05-08 02:25 | 40.16238 | 117.18111 | 18549 ft | 440 kts | 177° |
| 2026-05-08 02:26 | 40.13142 | 117.18598 | 19047 ft | 444 kts | 176° |
| 2026-05-08 02:26 | 40.10114 | 117.19103 | 19582 ft | 446 kts | 176° |
| 2026-05-08 02:26 | 40.07059 | 117.19641 | 20180 ft | 446 kts | 176° |
| 2026-05-08 02:26 | 40.03958 | 117.20204 | 20631 ft | 450 kts | 176° |
| 2026-05-08 02:27 | 40.00850 | 117.20772 | 21030 ft | 456 kts | 176° |
| 2026-05-08 02:27 | 39.97723 | 117.21342 | 21503 ft | 458 kts | 176° |
| 2026-05-08 02:27 | 39.94557 | 117.21920 | 21993 ft | 461 kts | 176° |
| 2026-05-08 02:27 | 39.91408 | 117.22494 | 22438 ft | 464 kts | 176° |
| 2026-05-08 02:28 | 39.88231 | 117.23072 | 22755 ft | 469 kts | 176° |
| 2026-05-08 02:28 | 39.84988 | 117.23663 | 22731 ft | 471 kts | 176° |
| 2026-05-08 02:28 | 39.81755 | 117.24253 | 22731 ft | 468 kts | 176° |
| 2026-05-08 02:28 | 39.78537 | 117.24841 | 22728 ft | 465 kts | 176° |
| 2026-05-08 02:29 | 39.75344 | 117.25424 | 22743 ft | 463 kts | 176° |
| 2026-05-08 02:29 | 39.72165 | 117.26002 | 22740 ft | 462 kts | 176° |
| 2026-05-08 02:29 | 39.70042 | 117.26388 | 22739 ft | 462 kts | 176° |
| 2026-05-08 02:29 | 39.66849 | 117.26966 | 22729 ft | 461 kts | 176° |
| 2026-05-08 02:30 | 39.63719 | 117.27533 | 22734 ft | 461 kts | 176° |
| 2026-05-08 02:30 | 39.60543 | 117.28107 | 22738 ft | 460 kts | 176° |
| 2026-05-08 02:30 | 39.57371 | 117.28680 | 22742 ft | 461 kts | 176° |
| 2026-05-08 02:30 | 39.54192 | 117.29254 | 22745 ft | 461 kts | 176° |
| 2026-05-08 02:31 | 39.51014 | 117.29828 | 22744 ft | 462 kts | 176° |
| 2026-05-08 02:31 | 39.47834 | 117.30402 | 22742 ft | 462 kts | 176° |
| 2026-05-08 02:31 | 39.44651 | 117.30976 | 22737 ft | 462 kts | 176° |
| 2026-05-08 02:31 | 39.41479 | 117.31686 | 22730 ft | 465 kts | 169° |
| 2026-05-08 02:32 | 39.38399 | 117.32986 | 22747 ft | 467 kts | 163° |
| 2026-05-08 02:32 | 39.35356 | 117.34483 | 22745 ft | 467 kts | 162° |
| 2026-05-08 02:32 | 39.32322 | 117.35993 | 22748 ft | 467 kts | 162° |
| 2026-05-08 02:32 | 39.29281 | 117.37462 | 22753 ft | 466 kts | 163° |
| 2026-05-08 02:33 | 39.26239 | 117.38883 | 22756 ft | 466 kts | 163° |
| 2026-05-08 02:33 | 39.23177 | 117.40283 | 22739 ft | 465 kts | 164° |
| 2026-05-08 02:33 | 39.20136 | 117.41663 | 22751 ft | 464 kts | 164° |
| 2026-05-08 02:33 | 39.17088 | 117.43049 | 22750 ft | 463 kts | 163° |
| 2026-05-08 02:34 | 39.14206 | 117.44920 | 22737 ft | 469 kts | 144° |
| 2026-05-08 02:34 | 39.11929 | 117.47878 | 22781 ft | 470 kts | 125° |
| 2026-05-08 02:34 | 39.10349 | 117.51552 | 22765 ft | 468 kts | 109° |
| 2026-05-08 02:34 | 39.09574 | 117.55577 | 22760 ft | 463 kts | 92° |
| 2026-05-08 02:35 | 39.09326 | 117.59708 | 22754 ft | 462 kts | 89° |
| 2026-05-08 02:35 | 39.09147 | 117.63841 | 22751 ft | 463 kts | 89° |
| 2026-05-08 02:35 | 39.08974 | 117.67979 | 22745 ft | 464 kts | 89° |
| 2026-05-08 02:35 | 39.08781 | 117.72137 | 22745 ft | 465 kts | 90° |
| 2026-05-08 02:36 | 39.08568 | 117.76293 | 22752 ft | 469 kts | 90° |
| 2026-05-08 02:36 | 39.08336 | 117.80516 | 22761 ft | 479 kts | 90° |
| 2026-05-08 02:36 | 39.08091 | 117.84824 | 22763 ft | 487 kts | 90° |
| 2026-05-08 02:36 | 39.07841 | 117.89104 | 22755 ft | 491 kts | 91° |
| 2026-05-08 02:37 | 39.07587 | 117.93395 | 22740 ft | 489 kts | 91° |
| 2026-05-08 02:37 | 39.07331 | 117.97750 | 22745 ft | 487 kts | 91° |
| 2026-05-08 02:37 | 39.07077 | 118.02079 | 22744 ft | 487 kts | 91° |
| 2026-05-08 02:37 | 39.06714 | 118.06403 | 22754 ft | 488 kts | 96° |
| 2026-05-08 02:38 | 39.06074 | 118.10762 | 22772 ft | 490 kts | 98° |
| 2026-05-08 02:38 | 39.05331 | 118.15036 | 22759 ft | 490 kts | 99° |
| 2026-05-08 02:38 | 39.04572 | 118.19290 | 22760 ft | 490 kts | 99° |
| 2026-05-08 02:38 | 39.03846 | 118.23475 | 22755 ft | 490 kts | 99° |
| 2026-05-08 02:39 | 39.03123 | 118.27819 | 22753 ft | 490 kts | 98° |
| 2026-05-08 02:39 | 39.02431 | 118.32105 | 22756 ft | 490 kts | 98° |
| 2026-05-08 02:39 | 39.01754 | 118.36354 | 22755 ft | 490 kts | 98° |
| 2026-05-08 02:39 | 39.01076 | 118.40620 | 22764 ft | 491 kts | 98° |
| 2026-05-08 02:40 | 39.00388 | 118.44922 | 22754 ft | 491 kts | 98° |
| 2026-05-08 02:40 | 38.99694 | 118.49224 | 22760 ft | 492 kts | 98° |
| 2026-05-08 02:40 | 38.98998 | 118.53529 | 22760 ft | 492 kts | 98° |
| 2026-05-08 02:40 | 38.98307 | 118.57807 | 22746 ft | 492 kts | 98° |
| 2026-05-08 02:41 | 38.97614 | 118.62091 | 22761 ft | 492 kts | 98° |
| 2026-05-08 02:41 | 38.96917 | 118.66392 | 22759 ft | 492 kts | 98° |
| 2026-05-08 02:41 | 38.96217 | 118.70701 | 22763 ft | 493 kts | 98° |
| 2026-05-08 02:41 | 38.95516 | 118.75007 | 22758 ft | 493 kts | 98° |
| 2026-05-08 02:42 | 38.94810 | 118.79333 | 22757 ft | 494 kts | 98° |
| 2026-05-08 02:42 | 38.94110 | 118.83610 | 22759 ft | 494 kts | 98° |
| 2026-05-08 02:42 | 38.93402 | 118.87928 | 22758 ft | 494 kts | 98° |
| 2026-05-08 02:42 | 38.92699 | 118.92204 | 22754 ft | 494 kts | 98° |
| 2026-05-08 02:43 | 38.91989 | 118.96516 | 22770 ft | 494 kts | 98° |
| 2026-05-08 02:43 | 38.91280 | 119.00807 | 22766 ft | 495 kts | 98° |
| 2026-05-08 02:43 | 38.90563 | 119.05131 | 22757 ft | 495 kts | 98° |
| 2026-05-08 02:43 | 38.89841 | 119.09453 | 22760 ft | 495 kts | 98° |
| 2026-05-08 02:44 | 38.89115 | 119.13777 | 22756 ft | 496 kts | 98° |
| 2026-05-08 02:44 | 38.88388 | 119.18102 | 22755 ft | 496 kts | 98° |
| 2026-05-08 02:44 | 38.87658 | 119.22430 | 22751 ft | 496 kts | 98° |
| 2026-05-08 02:44 | 38.86928 | 119.26753 | 22767 ft | 496 kts | 98° |
| 2026-05-08 02:45 | 38.86196 | 119.31079 | 22757 ft | 496 kts | 98° |
| 2026-05-08 02:45 | 38.85463 | 119.35407 | 22755 ft | 496 kts | 98° |
| 2026-05-08 02:45 | 38.84727 | 119.39737 | 22759 ft | 497 kts | 98° |
| 2026-05-08 02:45 | 38.83991 | 119.44059 | 22760 ft | 497 kts | 98° |
| 2026-05-08 02:46 | 38.83254 | 119.48378 | 22758 ft | 497 kts | 98° |
| 2026-05-08 02:46 | 38.82517 | 119.52684 | 22757 ft | 497 kts | 98° |
| 2026-05-08 02:46 | 38.81774 | 119.57015 | 22772 ft | 497 kts | 98° |
| 2026-05-08 02:46 | 38.81032 | 119.61336 | 22765 ft | 498 kts | 98° |
| 2026-05-08 02:47 | 38.80284 | 119.65678 | 22764 ft | 498 kts | 98° |
| 2026-05-08 02:47 | 38.79538 | 119.70003 | 22759 ft | 498 kts | 98° |
| 2026-05-08 02:47 | 38.78786 | 119.74346 | 22757 ft | 498 kts | 98° |
| 2026-05-08 02:47 | 38.77900 | 119.78596 | 22745 ft | 502 kts | 107° |
| 2026-05-08 02:48 | 38.76380 | 119.82637 | 22759 ft | 506 kts | 120° |
| 2026-05-08 02:48 | 38.74314 | 119.86259 | 22757 ft | 507 kts | 131° |
| 2026-05-08 02:48 | 38.71755 | 119.89352 | 22763 ft | 506 kts | 142° |
| 2026-05-08 02:48 | 38.69051 | 119.92165 | 22759 ft | 506 kts | 142° |
| 2026-05-08 02:49 | 38.66363 | 119.95076 | 22749 ft | 507 kts | 138° |
| 2026-05-08 02:49 | 38.63956 | 119.98371 | 22747 ft | 507 kts | 128° |
| 2026-05-08 02:49 | 38.61850 | 120.01934 | 22762 ft | 506 kts | 126° |
| 2026-05-08 02:49 | 38.59762 | 120.05510 | 22756 ft | 507 kts | 127° |
| 2026-05-08 02:50 | 38.57591 | 120.09118 | 22747 ft | 507 kts | 127° |
| 2026-05-08 02:50 | 38.55506 | 120.12652 | 22758 ft | 506 kts | 122° |
| 2026-05-08 02:50 | 38.53791 | 120.16540 | 22762 ft | 504 kts | 112° |
| 2026-05-08 02:50 | 38.52519 | 120.20699 | 22761 ft | 501 kts | 103° |
| 2026-05-08 02:51 | 38.51750 | 120.25002 | 22764 ft | 497 kts | 96° |
| 2026-05-08 02:51 | 38.51120 | 120.29338 | 22753 ft | 497 kts | 96° |
| 2026-05-08 02:51 | 38.50468 | 120.33654 | 22752 ft | 498 kts | 97° |
| 2026-05-08 02:51 | 38.49783 | 120.38001 | 22744 ft | 497 kts | 97° |
| 2026-05-08 02:52 | 38.49089 | 120.42265 | 22742 ft | 484 kts | 97° |
| 2026-05-08 02:52 | 38.48407 | 120.46419 | 22736 ft | 472 kts | 97° |
| 2026-05-08 02:52 | 38.47748 | 120.50438 | 22731 ft | 457 kts | 97° |
| 2026-05-08 02:52 | 38.47108 | 120.54352 | 22732 ft | 441 kts | 97° |
| 2026-05-08 02:53 | 38.46492 | 120.58124 | 22714 ft | 428 kts | 97° |
| 2026-05-08 02:53 | 38.45896 | 120.61777 | 22508 ft | 420 kts | 97° |
| 2026-05-08 02:53 | 38.45305 | 120.65414 | 22138 ft | 416 kts | 97° |
| 2026-05-08 02:53 | 38.44719 | 120.69027 | 21618 ft | 417 kts | 97° |
| 2026-05-08 02:54 | 38.44125 | 120.72688 | 20669 ft | 428 kts | 97° |
| 2026-05-08 02:54 | 38.43510 | 120.76475 | 19686 ft | 441 kts | 98° |
| 2026-05-08 02:54 | 38.42882 | 120.80291 | 19161 ft | 438 kts | 99° |
| 2026-05-08 02:54 | 38.42256 | 120.84067 | 18809 ft | 431 kts | 99° |
| 2026-05-08 02:55 | 38.41644 | 120.87764 | 18418 ft | 424 kts | 99° |
| 2026-05-08 02:55 | 38.40437 | 120.95059 | 17360 ft | 417 kts | 98° |
| 2026-05-08 02:55 | 38.40228 | 120.98697 | 16779 ft | 406 kts | 78° |
| 2026-05-08 02:56 | 38.40853 | 121.02143 | 16332 ft | 395 kts | 69° |
| 2026-05-08 02:56 | 38.41601 | 121.05496 | 15879 ft | 391 kts | 69° |
| 2026-05-08 02:56 | 38.42316 | 121.08834 | 15367 ft | 389 kts | 70° |
| 2026-05-08 02:56 | 38.43013 | 121.12148 | 14910 ft | 386 kts | 70° |
| 2026-05-08 02:57 | 38.43699 | 121.15437 | 14486 ft | 381 kts | 70° |
| 2026-05-08 02:57 | 38.44374 | 121.18685 | 14020 ft | 378 kts | 70° |
| 2026-05-08 02:57 | 38.45045 | 121.21910 | 13511 ft | 375 kts | 70° |
| 2026-05-08 02:57 | 38.45711 | 121.25115 | 12987 ft | 373 kts | 70° |
| 2026-05-08 02:58 | 38.46372 | 121.28313 | 12471 ft | 372 kts | 71° |
| 2026-05-08 02:58 | 38.46859 | 121.31540 | 12145 ft | 368 kts | 77° |
| 2026-05-08 02:58 | 38.47158 | 121.34734 | 12055 ft | 356 kts | 79° |
| 2026-05-08 02:58 | 38.47408 | 121.37822 | 11951 ft | 344 kts | 79° |
| 2026-05-08 02:59 | 38.47650 | 121.40780 | 11856 ft | 332 kts | 78° |
| 2026-05-08 02:59 | 38.47899 | 121.43659 | 11778 ft | 321 kts | 78° |
| 2026-05-08 02:59 | 38.48150 | 121.46446 | 11699 ft | 310 kts | 77° |
| 2026-05-08 02:59 | 38.48399 | 121.49135 | 11613 ft | 301 kts | 77° |
| 2026-05-08 03:00 | 38.48646 | 121.51771 | 11390 ft | 297 kts | 77° |
| 2026-05-08 03:00 | 38.48889 | 121.54350 | 11065 ft | 297 kts | 77° |
| 2026-05-08 03:00 | 38.49137 | 121.57006 | 10761 ft | 297 kts | 77° |
| 2026-05-08 03:00 | 38.49383 | 121.59571 | 10568 ft | 291 kts | 73° |
| 2026-05-08 03:01 | 38.50109 | 121.61891 | 10377 ft | 269 kts | 44° |
| 2026-05-08 03:01 | 38.51367 | 121.63476 | 10197 ft | 254 kts | 29° |
| 2026-05-08 03:01 | 38.52843 | 121.64684 | 9906 ft | 251 kts | 23° |
| 2026-05-08 03:01 | 38.54357 | 121.65781 | 9596 ft | 250 kts | 22° |
| 2026-05-08 03:02 | 38.55870 | 121.66860 | 9315 ft | 249 kts | 22° |
| 2026-05-08 03:02 | 38.57380 | 121.67941 | 9048 ft | 248 kts | 23° |
| 2026-05-08 03:02 | 38.58867 | 121.69017 | 8914 ft | 241 kts | 23° |
| 2026-05-08 03:02 | 38.60290 | 121.70055 | 8881 ft | 230 kts | 23° |
| 2026-05-08 03:03 | 38.61651 | 121.71053 | 8867 ft | 221 kts | 22° |
| 2026-05-08 03:03 | 38.62976 | 121.72023 | 8851 ft | 219 kts | 22° |
| 2026-05-08 03:03 | 38.64313 | 121.73002 | 8603 ft | 223 kts | 23° |
| 2026-05-08 03:03 | 38.65688 | 121.74006 | 7971 ft | 239 kts | 23° |
| 2026-05-08 03:04 | 38.67157 | 121.75082 | 7527 ft | 246 kts | 24° |
| 2026-05-08 03:04 | 38.68642 | 121.76179 | 7224 ft | 246 kts | 24° |
| 2026-05-08 03:04 | 38.70123 | 121.77276 | 6986 ft | 245 kts | 24° |
| 2026-05-08 03:04 | 38.71594 | 121.78366 | 6718 ft | 245 kts | 25° |
| 2026-05-08 03:05 | 38.73067 | 121.79458 | 6453 ft | 244 kts | 25° |
| 2026-05-08 03:05 | 38.74535 | 121.80546 | 6192 ft | 243 kts | 25° |
| 2026-05-08 03:05 | 38.75991 | 121.81627 | 5965 ft | 241 kts | 25° |
| 2026-05-08 03:05 | 38.77439 | 121.82701 | 5708 ft | 240 kts | 25° |
| 2026-05-08 03:06 | 38.78877 | 121.83767 | 5460 ft | 238 kts | 25° |
| 2026-05-08 03:06 | 38.80310 | 121.84831 | 5191 ft | 238 kts | 25° |
| 2026-05-08 03:06 | 38.81742 | 121.85894 | 4964 ft | 236 kts | 25° |
| 2026-05-08 03:06 | 38.83146 | 121.86939 | 4773 ft | 232 kts | 25° |
| 2026-05-08 03:07 | 38.84533 | 121.87937 | 4582 ft | 225 kts | 18° |
| 2026-05-08 03:07 | 38.86012 | 121.88329 | 4418 ft | 213 kts | 0° |
| 2026-05-08 03:07 | 38.87467 | 121.88490 | 4259 ft | 208 kts | 2° |
| 2026-05-08 03:07 | 38.88895 | 121.88670 | 4113 ft | 205 kts | 2° |
| 2026-05-08 03:08 | 38.90313 | 121.88853 | 3975 ft | 205 kts | 2° |
| 2026-05-08 03:08 | 38.91733 | 121.88967 | 3818 ft | 203 kts | 351° |
| 2026-05-08 03:08 | 38.92996 | 121.88263 | 3678 ft | 200 kts | 320° |
| 2026-05-08 03:08 | 38.93837 | 121.86852 | 3536 ft | 203 kts | 296° |
| 2026-05-08 03:09 | 38.94143 | 121.85063 | 3410 ft | 207 kts | 280° |
| 2026-05-08 03:09 | 38.94280 | 121.83212 | 3246 ft | 209 kts | 280° |
| 2026-05-08 03:09 | 38.94421 | 121.81368 | 3098 ft | 211 kts | 280° |
| 2026-05-08 03:09 | 38.94579 | 121.79459 | 2943 ft | 212 kts | 282° |
| 2026-05-08 03:10 | 38.94764 | 121.77594 | 2781 ft | 208 kts | 281° |
| 2026-05-08 03:10 | 38.94912 | 121.75806 | 2642 ft | 200 kts | 281° |
| 2026-05-08 03:10 | 38.95045 | 121.74045 | 2490 ft | 190 kts | 281° |
| 2026-05-08 03:10 | 38.95170 | 121.72364 | 2359 ft | 187 kts | 280° |
| 2026-05-08 03:11 | 38.95290 | 121.70750 | 2182 ft | 181 kts | 280° |
| 2026-05-08 03:11 | 38.95409 | 121.69163 | 2077 ft | 176 kts | 280° |
| 2026-05-08 03:11 | 38.95524 | 121.67630 | 1953 ft | 170 kts | 281° |
| 2026-05-08 03:11 | 38.95637 | 121.66125 | 1758 ft | 169 kts | 281° |
| 2026-05-08 03:12 | 38.95749 | 121.64639 | 1548 ft | 165 kts | 281° |
| 2026-05-08 03:12 | 38.95855 | 121.63220 | 1337 ft | 154 kts | 281° |
| 2026-05-08 03:12 | 38.95951 | 121.61889 | 1113 ft | 148 kts | 283° |
| 2026-05-08 03:12 | 38.96082 | 121.60581 | 896 ft | 151 kts | 278° |
| 2026-05-08 03:13 | 38.96158 | 121.59202 | 746 ft | 157 kts | 277° |
| 2026-05-08 03:13 | 38.96259 | 121.57801 | 472 ft | 155 kts | 281° |
| 2026-05-08 03:13 | 38.96376 | 121.56451 | 287 ft | 151 kts | 277° |
| 2026-05-08 03:13 | 38.96473 | 121.55106 | 117 ft | 152 kts | 277° |
| 2026-05-08 03:14 | 38.96572 | 121.53862 | 104 ft | 123 kts | 275° |
| 2026-05-08 03:14 | 38.96636 | 121.52996 | 110 ft | 69 kts | 277° |
| 2026-05-08 03:14 | 38.96680 | 121.52451 | 112 ft | 45 kts | 275° |
| 2026-05-08 03:14 | 38.96703 | 121.52156 | 116 ft | 30 kts | 275° |
| 2026-05-08 03:15 | 38.96666 | 121.51976 | 113 ft | 18 kts | 202° |
| 2026-05-08 03:15 | 38.96548 | 121.51963 | 114 ft | 16 kts | 159° |
| 2026-05-08 03:15 | 38.96507 | 121.52089 | 114 ft | 16 kts | 95° |
| 2026-05-08 03:15 | 38.96498 | 121.52228 | 114 ft | 15 kts | 95° |
| 2026-05-08 03:16 | 38.96488 | 121.52361 | 113 ft | 15 kts | 96° |
| 2026-05-08 03:16 | 38.96481 | 121.52446 | 113 ft | 14 kts | 95° |
| 2026-05-08 03:16 | 38.96472 | 121.52570 | 112 ft | 14 kts | 96° |
| 2026-05-08 03:16 | 38.96463 | 121.52689 | 111 ft | 13 kts | 96° |
| 2026-05-08 03:17 | 38.96454 | 121.52803 | 111 ft | 13 kts | 96° |
| 2026-05-08 03:17 | 38.96396 | 121.52856 | 110 ft | 12 kts | 198° |
| 2026-05-08 03:17 | 38.96387 | 121.52784 | 111 ft | 8 kts | 268° |
| 2026-05-08 03:17 | 38.96387 | 121.52776 | 111 ft | 0 kts | 268° |